.
WxDataArchive / Data Records for 2006-11-28
2006-11-27 November 2006 2006-11-29

Data Records for Tuesday, 28 November 2006

Time	Temp	Chill	HIndex	Humid	Dewpt	 Wind 	HiWind	WindDir	Rain 	Barom 
-----	----	-----	------	-----	-----	------	------	-------	-----	----- 
00:00	49.8	49.8	49.8	82	44.5	0	0	---	0.00	30.133 
00:05	49.6	49.6	49.6	82	44.3	0	1	135	0.00	30.133 
00:10	49.6	49.6	49.6	82	44.3	0	1	135	0.00	30.133 
00:15	49.6	49.6	49.6	82	44.3	0	0	---	0.00	30.129 
00:20	49.5	49.5	49.5	82	44.2	0	0	---	0.00	30.129 
00:25	49.4	49.4	49.4	82	44.1	0	0	---	0.00	30.129 
00:30	49.1	49.1	49.1	83	44.2	0	0	---	0.00	30.132 
00:35	48.9	48.9	48.9	83	44.0	0	0	---	0.00	30.132 
00:40	48.6	48.6	48.6	83	43.7	0	0	---	0.00	30.132 
00:45	48.5	48.5	48.5	84	43.9	0	1	135	0.00	30.133 
00:50	48.3	48.3	48.3	84	43.7	0	0	---	0.00	30.133 
00:55	48.2	48.2	48.2	84	43.6	0	0	---	0.00	30.133 
01:00	48.3	48.3	48.3	85	44.0	0	0	---	0.00	30.131 
01:05	48.8	48.8	48.8	84	44.2	0	1	135	0.00	30.131 
01:10	49.1	49.1	49.1	84	44.5	0	1	135	0.00	30.131 
01:15	49.4	49.4	49.4	83	44.5	0	0	---	0.00	30.125 
01:20	49.6	49.6	49.6	82	44.3	0	1	135	0.00	30.125 
01:25	49.8	49.8	49.8	82	44.5	0	1	135	0.00	30.125 
01:30	49.9	49.9	49.9	82	44.6	0	0	---	0.00	30.121 
01:35	49.9	49.9	49.9	82	44.6	0	0	---	0.00	30.121 
01:40	49.9	49.9	49.9	82	44.6	0	1	135	0.00	30.121 
01:45	50.1	50.1	50.1	81	44.5	0	1	135	0.00	30.117 
01:50	50.2	50.2	50.2	81	44.6	0	1	135	0.00	30.117 
01:55	50.2	50.2	50.2	81	44.6	0	1	135	0.00	30.117 
02:00	50.4	50.4	50.4	81	44.8	0	1	135	0.00	30.115 
02:05	50.2	50.2	50.2	81	44.6	0	1	135	0.00	30.115 
02:10	50.2	50.2	50.2	81	44.6	0	0	---	0.00	30.115 
02:15	50.2	50.2	50.2	81	44.6	0	0	---	0.00	30.114 
02:20	50.2	50.2	50.2	81	44.6	0	0	---	0.00	30.114 
02:25	50.1	50.1	50.1	81	44.5	0	1	135	0.00	30.114 
02:30	50.1	50.1	50.1	81	44.5	0	1	135	0.00	30.113 
02:35	50.2	50.2	50.2	81	44.6	0	1	135	0.00	30.113 
02:40	50.2	50.2	50.2	81	44.6	0	1	135	0.00	30.113 
02:45	50.2	50.2	50.2	80	44.3	0	1	135	0.00	30.114 
02:50	50.2	50.2	50.2	80	44.3	0	1	135	0.00	30.114 
02:55	50.4	50.4	50.4	80	44.5	0	2	135	0.00	30.114 
03:00	50.4	50.4	50.4	79	44.1	0	1	135	0.00	30.114 
03:05	50.4	50.4	50.4	80	44.5	0	1	135	0.00	30.114 
03:10	50.2	50.2	50.2	80	44.3	0	1	135	0.00	30.114 
03:15	50.1	50.1	50.1	80	44.2	0	1	135	0.00	30.112 
03:20	49.9	49.9	49.9	80	44.0	0	0	---	0.00	30.112 
03:25	49.8	49.8	49.8	80	43.9	0	1	135	0.00	30.112 
03:30	49.6	49.6	49.6	80	43.7	0	1	135	0.00	30.107 
03:35	49.5	49.5	49.5	80	43.6	0	0	---	0.00	30.107 
03:40	49.4	49.4	49.4	80	43.5	0	2	135	0.00	30.107 
03:45	49.2	49.2	49.2	80	43.3	0	0	---	0.00	30.104 
03:50	49.2	49.2	49.2	80	43.3	0	1	135	0.00	30.104 
03:55	49.1	49.1	49.1	81	43.5	0	0	---	0.00	30.104 
04:00	48.9	48.9	48.9	81	43.3	0	0	---	0.00	30.098 
04:05	48.8	48.8	48.8	81	43.2	0	0	---	0.00	30.098 
04:10	48.8	48.8	48.8	81	43.2	0	0	---	0.00	30.098 
04:15	48.6	48.6	48.6	81	43.0	0	0	---	0.00	30.100 
04:20	48.5	48.5	48.5	81	42.9	0	0	---	0.00	30.100 
04:25	48.3	48.3	48.3	81	42.7	0	0	---	0.00	30.100 
04:30	48.2	48.2	48.2	82	43.0	0	1	135	0.00	30.095 
04:35	48.3	48.3	48.3	82	43.1	0	0	---	0.00	30.095 
04:40	48.5	48.5	48.5	81	42.9	0	1	135	0.00	30.095 
04:45	48.8	48.8	48.8	81	43.2	0	2	135	0.00	30.090 
04:50	49.1	49.1	49.1	80	43.2	0	2	135	0.00	30.090 
04:55	49.2	49.2	49.2	79	43.0	0	2	135	0.00	30.090 
05:00	49.4	49.4	49.4	79	43.2	0	1	135	0.00	30.087 
05:05	49.4	49.4	49.4	78	42.8	0	1	135	0.00	30.087 
05:10	49.4	49.4	49.4	78	42.8	0	1	135	0.00	30.087 
05:15	49.4	49.4	49.4	78	42.8	0	2	135	0.00	30.088 
05:20	49.5	49.5	49.5	78	42.9	0	2	135	0.00	30.088 
05:25	49.6	49.6	49.6	78	43.0	0	1	135	0.00	30.088 
05:30	49.6	49.6	49.6	78	43.0	0	2	135	0.00	30.087 
05:35	49.6	49.6	49.6	77	42.7	0	1	135	0.00	30.087 
05:40	49.8	49.8	49.8	77	42.9	0	2	135	0.00	30.087 
05:45	50.1	50.1	50.1	76	42.8	1	3	112	0.00	30.088 
05:50	50.4	50.4	50.4	76	43.1	0	1	112	0.00	30.088 
05:55	50.4	50.4	50.4	76	43.1	0	2	112	0.00	30.088 
06:00	50.4	50.4	50.4	75	42.8	0	3	112	0.00	30.088 
06:05	50.5	50.5	50.5	75	42.9	0	2	112	0.00	30.088 
06:10	50.7	50.7	50.7	75	43.1	0	2	112	0.00	30.088 
06:15	50.7	50.7	50.7	74	42.7	1	3	112	0.00	30.090 
06:20	50.7	50.7	50.7	74	42.7	0	2	112	0.00	30.090 
06:25	50.7	50.7	50.7	74	42.7	0	2	112	0.00	30.090 
06:30	50.5	50.5	50.5	74	42.5	0	2	112	0.00	30.093 
06:35	50.4	50.4	50.4	74	42.4	0	2	135	0.00	30.093 
06:40	50.4	50.4	50.4	74	42.4	0	1	135	0.00	30.093 
06:45	50.5	50.5	50.5	73	42.2	0	2	135	0.00	30.088 
06:50	50.5	50.5	50.5	73	42.2	1	2	112	0.00	30.088 
06:55	50.7	50.7	50.7	73	42.4	1	3	112	0.00	30.088 
07:00	50.8	50.8	50.8	72	42.1	1	3	135	0.00	30.086 
07:05	50.8	50.8	50.8	72	42.1	0	2	112	0.00	30.086 
07:10	50.8	50.8	50.8	72	42.1	0	2	112	0.00	30.086 
07:15	50.8	50.8	50.8	72	42.1	0	2	112	0.00	30.086 
07:20	50.7	50.7	50.7	72	42.0	1	2	112	0.00	30.086 
07:25	50.8	50.8	50.8	71	41.7	1	3	112	0.00	30.086 
07:30	50.8	50.8	50.8	71	41.7	1	3	112	0.00	30.085 
07:35	50.8	50.8	50.8	71	41.7	1	3	90	0.00	30.085 
07:40	51.0	51.0	51.0	71	41.9	1	3	112	0.00	30.085 
07:45	51.0	51.0	51.0	71	41.9	1	3	90	0.00	30.088 
07:50	50.8	50.8	50.8	71	41.7	1	3	112	0.00	30.088 
07:55	50.8	50.8	50.8	71	41.7	1	3	112	0.00	30.088 
08:00	50.8	50.8	50.8	71	41.7	1	4	90	0.00	30.087 
08:05	50.8	50.8	50.8	71	41.7	1	2	112	0.00	30.087 
08:10	50.8	50.8	50.8	70	41.4	1	3	112	0.00	30.087 
08:15	50.8	50.8	50.8	70	41.4	0	2	112	0.00	30.086 
08:20	50.7	50.7	50.7	70	41.3	0	2	112	0.00	30.086 
08:25	50.7	50.7	50.7	70	41.3	1	3	112	0.00	30.086 
08:30	50.7	50.7	50.7	70	41.3	0	2	135	0.00	30.088 
08:35	50.7	50.7	50.7	70	41.3	0	1	135	0.00	30.088 
08:40	50.7	50.7	50.7	70	41.3	0	1	135	0.00	30.088 
08:45	50.7	50.7	50.7	71	41.6	0	2	135	0.00	30.094 
08:50	50.7	50.7	50.7	71	41.6	0	1	135	0.00	30.094 
08:55	50.8	50.8	50.8	70	41.4	0	2	135	0.00	30.094 
09:00	51.0	51.0	51.0	69	41.2	0	3	135	0.00	30.096 
09:05	51.3	51.3	51.3	69	41.5	1	2	90	0.00	30.096 
09:10	51.6	51.6	51.6	67	41.0	1	3	90	0.00	30.096 
09:15	51.7	51.7	51.7	66	40.7	1	3	112	0.00	30.089 
09:20	52.0	52.0	52.0	65	40.6	2	5	112	0.00	30.089 
09:25	52.0	52.0	52.0	65	40.6	2	4	112	0.00	30.089 
09:30	52.0	52.0	52.0	65	40.6	1	3	90	0.00	30.083 
09:35	52.0	52.0	52.0	64	40.2	1	4	112	0.00	30.083 
09:40	52.2	52.2	52.2	64	40.4	1	4	90	0.00	30.083 
09:45	52.2	52.2	52.2	64	40.4	1	5	22	0.00	30.084 
09:50	52.3	52.3	52.3	64	40.5	1	5	112	0.00	30.084 
09:55	52.3	52.3	52.3	64	40.5	1	3	112	0.00	30.084 
10:00	52.5	52.5	52.5	63	40.3	2	5	90	0.00	30.086 
10:05	52.6	52.6	52.6	63	40.4	1	3	0	0.00	30.086 
10:10	52.6	52.6	52.6	64	40.8	1	3	112	0.00	30.086 
10:15	52.9	52.9	52.9	63	40.7	2	4	90	0.00	30.085 
10:20	53.2	53.2	53.2	62	40.5	2	6	68	0.00	30.085 
10:25	53.5	53.5	53.5	62	40.8	2	5	270	0.00	30.085 
10:30	53.8	53.8	53.8	61	40.7	1	4	68	0.00	30.078 
10:35	54.1	54.1	54.1	60	40.5	2	5	90	0.00	30.078 
10:40	54.4	54.4	54.4	60	40.8	2	4	90	0.00	30.078 
10:45	54.7	54.7	54.7	60	41.1	2	7	315	0.00	30.076 
10:50	55.0	55.0	55.0	60	41.4	1	4	248	0.00	30.076 
10:55	55.3	55.3	55.3	59	41.2	1	4	90	0.00	30.076 
11:00	55.7	55.7	55.7	58	41.2	2	4	90	0.00	30.070 
11:05	56.0	56.0	56.0	58	41.4	2	6	112	0.00	30.070 
11:10	56.3	56.3	56.3	57	41.3	1	5	90	0.00	30.070 
11:15	56.7	56.7	56.7	56	41.2	2	6	90	0.00	30.064 
11:20	57.2	57.2	57.2	57	42.1	1	4	90	0.00	30.064 
11:25	57.6	57.6	57.6	56	42.0	1	4	112	0.00	30.064 
11:30	58.1	58.1	58.1	56	42.5	1	3	248	0.00	30.060 
11:35	58.4	58.4	58.4	55	42.3	1	5	248	0.00	30.060 
11:40	58.6	58.6	58.6	54	42.0	2	7	90	0.00	30.060 
11:45	58.9	58.9	58.9	55	42.8	1	5	248	0.00	30.052 
11:50	59.2	59.2	59.2	54	42.6	2	12	90	0.00	30.052 
11:55	59.3	59.3	59.3	52	41.7	3	9	225	0.00	30.052 
12:00	59.3	59.3	59.3	52	41.7	3	10	248	0.00	30.046 
12:05	59.2	59.2	59.2	54	42.6	1	5	270	0.00	30.046 
12:10	59.3	59.3	59.3	54	42.7	2	5	248	0.00	30.046 
12:15	59.5	59.5	59.5	54	42.8	2	9	248	0.00	30.034 
12:20	59.5	59.5	59.5	54	42.8	3	8	248	0.00	30.034 
12:25	59.3	59.3	59.3	55	43.1	3	12	90	0.00	30.034 
12:30	59.3	59.3	59.3	56	43.6	2	5	248	0.00	30.039 
12:35	59.3	59.3	59.3	57	44.1	2	6	112	0.00	30.039 
12:40	59.3	59.3	59.3	57	44.1	2	7	338	0.00	30.039 
12:45	59.3	59.3	59.3	57	44.1	2	7	248	0.00	30.038 
12:50	59.5	59.5	59.5	58	44.7	1	4	158	0.00	30.038 
12:55	59.3	59.3	59.3	58	44.5	1	3	68	0.00	30.038 
13:00	59.3	59.3	59.3	58	44.5	1	4	68	0.00	30.036 
13:05	59.3	59.3	59.3	58	44.5	2	4	292	0.00	30.036 
13:10	59.5	59.5	59.5	58	44.7	1	7	248	0.00	30.036 
13:15	59.5	59.5	59.5	58	44.7	2	5	270	0.00	30.029 
13:20	59.6	59.6	59.6	58	44.8	2	6	248	0.00	30.029 
13:25	59.9	59.9	59.9	59	45.5	1	5	248	0.00	30.029 
13:30	60.5	60.5	60.5	58	45.6	1	3	68	0.00	30.016 
13:35	60.9	60.9	60.9	57	45.6	2	7	90	0.00	30.016 
13:40	61.0	61.0	61.0	57	45.7	3	7	90	0.00	30.016 
13:45	61.3	61.3	61.3	58	46.4	2	7	90	0.00	30.003 
13:50	61.6	61.6	61.6	56	45.7	2	9	90	0.00	30.003 
13:55	62.0	62.0	62.0	57	46.6	3	9	248	0.00	30.003 
14:00	61.8	61.8	61.8	57	46.4	2	9	112	0.00	30.002 
14:05	61.6	61.6	61.6	57	46.2	2	5	90	0.00	30.002 
14:10	61.5	61.5	61.5	58	46.6	2	4	248	0.00	30.002 
14:15	61.3	61.3	61.3	57	45.9	3	6	248	0.00	29.999 
14:20	61.3	61.3	61.3	58	46.4	1	3	45	0.00	29.999 
14:25	61.8	61.8	61.8	58	46.9	1	5	338	0.00	29.999 
14:30	62.3	62.3	62.3	57	46.9	3	7	90	0.00	29.986 
14:35	62.1	62.1	62.1	57	46.7	3	10	270	0.00	29.986 
14:40	62.1	62.1	62.1	58	47.1	2	7	90	0.00	29.986 
14:45	62.4	62.4	62.4	57	47.0	2	5	90	0.00	29.984 
14:50	62.7	62.7	62.7	57	47.2	2	5	112	0.00	29.984 
14:55	62.9	62.9	62.9	56	47.0	4	10	90	0.00	29.984 
15:00	62.9	62.9	62.9	56	47.0	2	7	90	0.00	29.983 
15:05	62.9	62.9	62.9	57	47.4	1	4	90	0.00	29.983 
15:10	62.7	62.7	62.7	57	47.2	1	3	315	0.00	29.983 
15:15	62.9	62.9	62.9	58	47.9	2	4	45	0.00	29.985 
15:20	63.2	63.2	63.2	57	47.7	2	4	112	0.00	29.985 
15:25	63.1	63.1	63.1	58	48.1	2	5	90	0.00	29.985 
15:30	62.4	62.4	62.4	59	47.9	2	7	112	0.00	29.983 
15:35	62.0	62.0	62.0	59	47.5	1	4	248	0.00	29.983 
15:40	61.8	61.8	61.8	60	47.8	1	4	90	0.00	29.983 
15:45	62.0	62.0	62.0	60	48.0	2	4	68	0.00	29.983 
15:50	62.1	62.1	62.1	61	48.5	1	4	112	0.00	29.983 
15:55	62.6	62.6	62.6	60	48.5	1	6	270	0.00	29.983 
16:00	63.1	63.1	63.1	60	49.0	2	6	248	0.00	29.983 
16:05	63.4	63.4	63.4	58	48.4	3	10	248	0.00	29.983 
16:10	63.5	63.5	63.5	58	48.5	3	6	248	0.00	29.983 
16:15	63.5	63.5	63.5	58	48.5	4	11	248	0.00	29.988 
16:20	63.2	63.2	63.2	59	48.6	2	5	248	0.00	29.988 
16:25	62.7	62.7	62.7	60	48.6	1	3	225	0.00	29.988 
16:30	62.3	62.3	62.3	61	48.7	1	4	248	0.00	29.990 
16:35	61.8	61.8	61.8	62	48.6	1	3	270	0.00	29.990 
16:40	61.3	61.3	61.3	63	48.6	1	3	270	0.00	29.990 
16:45	61.0	61.0	61.0	64	48.7	1	4	225	0.00	29.995 
16:50	60.9	60.9	60.9	64	48.6	1	4	248	0.00	29.995 
16:55	60.7	60.7	60.7	65	48.9	0	3	248	0.00	29.995 
17:00	60.7	60.7	60.7	65	48.9	1	2	248	0.00	30.002 
17:05	60.7	60.7	60.7	64	48.4	1	4	248	0.00	30.002 
17:10	61.0	61.0	61.0	63	48.3	3	10	248	0.00	30.002 
17:15	61.3	61.3	61.3	61	47.7	3	8	270	0.00	30.001 
17:20	61.3	61.3	61.3	61	47.7	2	6	248	0.00	30.001 
17:25	61.2	61.2	61.2	62	48.1	2	5	248	0.00	30.001 
17:30	61.0	61.0	61.0	62	47.9	1	6	248	0.00	30.002 
17:35	60.7	60.7	60.7	63	48.0	2	7	45	0.00	30.002 
17:40	60.5	60.5	60.5	63	47.8	1	9	338	0.00	30.002 
17:45	60.2	60.2	60.2	64	48.0	1	6	22	0.00	30.003 
17:50	59.9	59.9	59.9	64	47.7	2	5	270	0.00	30.003 
17:55	59.6	59.6	59.6	65	47.8	1	5	112	0.00	30.003 
18:00	59.3	59.3	59.3	65	47.5	2	7	270	0.00	30.004 
18:05	59.3	59.3	59.3	65	47.5	1	7	248	0.00	30.004 
18:10	59.3	59.3	59.3	65	47.5	1	4	90	0.00	30.004 
18:15	59.0	59.0	59.0	66	47.7	1	3	90	0.00	30.005 
18:20	58.9	58.9	58.9	67	48.0	1	6	22	0.00	30.005 
18:25	58.7	58.7	58.7	67	47.8	1	4	22	0.00	30.005 
18:30	58.6	58.6	58.6	67	47.7	1	4	90	0.00	30.004 
18:35	58.6	58.6	58.6	67	47.7	2	5	90	0.00	30.004 
18:40	58.7	58.7	58.7	67	47.8	2	4	112	0.00	30.004 
18:45	58.7	58.7	58.7	67	47.8	1	4	90	0.00	30.005 
18:50	58.7	58.7	58.7	68	48.2	1	4	112	0.00	30.005 
18:55	58.6	58.6	58.6	68	48.1	2	4	90	0.00	30.005 
19:00	58.4	58.4	58.4	69	48.3	2	6	90	0.00	30.011 
19:05	58.3	58.3	58.3	69	48.2	1	5	90	0.00	30.011 
19:10	58.0	58.0	58.0	70	48.3	2	4	68	0.00	30.011 
19:15	57.8	57.8	57.8	70	48.1	1	4	90	0.00	30.015 
19:20	57.6	57.6	57.6	71	48.3	1	3	22	0.00	30.015 
19:25	57.6	57.6	57.6	71	48.3	2	5	45	0.00	30.015 
19:30	57.5	57.5	57.5	72	48.5	1	3	45	0.00	30.016 
19:35	57.5	57.5	57.5	72	48.5	1	6	22	0.00	30.016 
19:40	57.5	57.5	57.5	72	48.5	1	5	22	0.00	30.016 
19:45	57.5	57.5	57.5	72	48.5	1	5	22	0.00	30.013 
19:50	57.5	57.5	57.5	73	48.9	2	5	90	0.00	30.013 
19:55	57.5	57.5	57.5	73	48.9	1	4	90	0.00	30.013 
20:00	57.5	57.5	57.5	73	48.9	1	3	45	0.00	30.018 
20:05	57.3	57.3	57.3	73	48.7	1	5	45	0.00	30.018 
20:10	57.3	57.3	57.3	73	48.7	1	5	112	0.00	30.018 
20:15	57.2	57.2	57.2	74	49.0	1	5	90	0.00	30.018 
20:20	57.0	57.0	57.0	74	48.8	1	3	135	0.00	30.018 
20:25	56.9	56.9	56.9	74	48.7	2	4	112	0.00	30.018 
20:30	56.9	56.9	56.9	73	48.3	1	4	112	0.00	30.015 
20:35	56.9	56.9	56.9	73	48.3	3	6	112	0.00	30.015 
20:40	56.9	56.9	56.9	72	48.0	2	10	112	0.00	30.015 
20:45	56.9	56.9	56.9	72	48.0	2	5	90	0.00	30.009 
20:50	56.7	56.7	56.7	72	47.8	1	6	112	0.00	30.009 
20:55	56.7	56.7	56.7	72	47.8	2	4	112	0.00	30.009 
21:00	56.6	56.6	56.6	73	48.0	1	3	90	0.00	30.008 
21:05	56.6	56.6	56.6	73	48.0	2	5	112	0.00	30.008 
21:10	56.6	56.6	56.6	73	48.0	2	6	90	0.00	30.008 
21:15	56.6	56.6	56.6	74	48.4	2	4	112	0.00	30.009 
21:20	56.6	56.6	56.6	74	48.4	2	4	112	0.00	30.009 
21:25	56.6	56.6	56.6	74	48.4	2	5	90	0.00	30.009 
21:30	56.6	56.6	56.6	75	48.8	2	5	112	0.00	30.012 
21:35	56.6	56.6	56.6	75	48.8	2	9	112	0.00	30.012 
21:40	56.6	56.6	56.6	76	49.1	2	6	90	0.00	30.012 
21:45	56.6	56.6	56.6	76	49.1	2	6	90	0.00	30.015 
21:50	56.6	56.6	56.6	76	49.1	2	5	90	0.00	30.015 
21:55	56.6	56.6	56.6	77	49.5	2	8	112	0.00	30.015 
22:00	56.6	56.6	56.6	77	49.5	2	5	112	0.00	30.010 
22:05	56.6	56.6	56.6	78	49.8	2	4	112	0.00	30.010 
22:10	56.6	56.6	56.6	78	49.8	2	7	112	0.00	30.010 
22:15	56.7	56.7	56.7	79	50.3	2	6	68	0.00	30.008 
22:20	56.7	56.7	56.7	79	50.3	2	8	68	0.00	30.008 
22:25	56.9	56.9	56.9	79	50.5	1	5	112	0.00	30.008 
22:30	56.9	56.9	56.9	80	50.8	1	3	0	0.00	30.009 
22:35	56.9	56.9	56.9	80	50.8	2	5	90	0.00	30.009 
22:40	57.0	57.0	57.0	80	50.9	2	7	90	0.00	30.009 
22:45	56.9	56.9	56.9	80	50.8	1	3	90	0.00	30.011 
22:50	56.9	56.9	56.9	81	51.1	2	7	22	0.00	30.011 
22:55	56.9	56.9	56.9	81	51.1	2	6	45	0.00	30.011 
23:00	56.9	56.9	56.9	81	51.1	1	5	112	0.00	30.005 
23:05	56.9	56.9	56.9	81	51.1	2	7	90	0.00	30.005 
23:10	56.9	56.9	56.9	81	51.1	2	4	68	0.00	30.005 
23:15	56.9	56.9	56.9	82	51.5	2	5	90	0.00	29.996 
23:20	56.7	56.7	56.7	82	51.3	2	5	112	0.00	29.996 
23:25	56.6	56.6	56.6	83	51.5	2	4	112	0.00	29.996 
23:30	56.5	56.5	56.5	83	51.4	1	7	22	0.00	29.995 
23:35	56.5	56.5	56.5	83	51.4	1	3	90	0.00	29.995 
23:40	56.5	56.5	56.5	84	51.7	1	4	90	0.00	29.995 
23:45	56.5	56.5	56.5	84	51.7	1	3	90	0.00	29.995 
23:50	56.6	56.6	56.6	84	51.8	2	5	90	0.00	29.995 
23:55	56.7	56.7	56.7	84	51.9	2	6	112	0.00	29.995 

CoCoRaHS
IN-AL-39
A2 Web Hosting
Creative Commons License
GoDaddy
Look for:

loaded 2017-10-16 18:25:08 • last modified 2010-11-18 10:43:29
Privacy PolicyDisclaimer
• wx.awcolley.com is powered by PmWiki v.2002016 •
• all content (unless otherwise noted) © 2017 A W Colley